sensor_id;sensor_type;location;lat;lon;timestamp;temperature;humidity
37086;DHT22;23001;45.952;12.676;2022-11-14T00:00:47;11.20;99.90
37086;DHT22;23001;45.952;12.676;2022-11-14T00:03:13;11.20;99.90
37086;DHT22;23001;45.952;12.676;2022-11-14T00:05:41;11.10;99.90
37086;DHT22;23001;45.952;12.676;2022-11-14T00:08:14;11.20;99.90
37086;DHT22;23001;45.952;12.676;2022-11-14T00:10:44;11.20;99.90
37086;DHT22;23001;45.952;12.676;2022-11-14T00:13:10;11.20;99.90
37086;DHT22;23001;45.952;12.676;2022-11-14T00:15:35;11.20;99.90
37086;DHT22;23001;45.952;12.676;2022-11-14T00:18:01;11.20;99.90
37086;DHT22;23001;45.952;12.676;2022-11-14T00:20:27;11.20;99.90
37086;DHT22;23001;45.952;12.676;2022-11-14T00:22:53;11.10;99.90
37086;DHT22;23001;45.952;12.676;2022-11-14T00:25:19;11.20;99.90
37086;DHT22;23001;45.952;12.676;2022-11-14T00:27:45;11.10;99.90
37086;DHT22;23001;45.952;12.676;2022-11-14T00:30:10;11.10;99.90
37086;DHT22;23001;45.952;12.676;2022-11-14T00:32:36;11.20;99.90
37086;DHT22;23001;45.952;12.676;2022-11-14T00:35:02;11.20;99.90
37086;DHT22;23001;45.952;12.676;2022-11-14T00:37:28;11.10;99.90
37086;DHT22;23001;45.952;12.676;2022-11-14T00:39:53;11.20;99.90
37086;DHT22;23001;45.952;12.676;2022-11-14T00:42:19;11.10;99.90
37086;DHT22;23001;45.952;12.676;2022-11-14T00:44:45;11.20;99.90
37086;DHT22;23001;45.952;12.676;2022-11-14T00:47:11;11.20;99.90
37086;DHT22;23001;45.952;12.676;2022-11-14T00:49:36;11.10;99.90
37086;DHT22;23001;45.952;12.676;2022-11-14T00:52:02;11.10;99.90
37086;DHT22;23001;45.952;12.676;2022-11-14T00:54:28;11.20;99.90
37086;DHT22;23001;45.952;12.676;2022-11-14T00:56:54;11.20;99.90
37086;DHT22;23001;45.952;12.676;2022-11-14T00:59:19;11.20;99.90
37086;DHT22;23001;45.952;12.676;2022-11-14T01:01:45;11.20;99.90
37086;DHT22;23001;45.952;12.676;2022-11-14T01:04:11;11.20;99.90
37086;DHT22;23001;45.952;12.676;2022-11-14T01:06:36;11.20;99.90
37086;DHT22;23001;45.952;12.676;2022-11-14T01:09:05;11.20;99.90
37086;DHT22;23001;45.952;12.676;2022-11-14T01:11:30;11.20;99.90
37086;DHT22;23001;45.952;12.676;2022-11-14T01:13:56;11.20;99.90
37086;DHT22;23001;45.952;12.676;2022-11-14T01:16:22;11.20;99.90
37086;DHT22;23001;45.952;12.676;2022-11-14T01:18:48;11.20;99.90
37086;DHT22;23001;45.952;12.676;2022-11-14T01:21:14;11.20;99.90
37086;DHT22;23001;45.952;12.676;2022-11-14T01:23:40;11.20;99.90
37086;DHT22;23001;45.952;12.676;2022-11-14T01:26:11;11.30;99.90
37086;DHT22;23001;45.952;12.676;2022-11-14T01:28:38;11.30;99.90
37086;DHT22;23001;45.952;12.676;2022-11-14T01:31:12;11.20;99.90
37086;DHT22;23001;45.952;12.676;2022-11-14T01:33:39;11.20;99.90
37086;DHT22;23001;45.952;12.676;2022-11-14T01:36:05;11.20;99.90
37086;DHT22;23001;45.952;12.676;2022-11-14T01:38:32;11.30;99.90
37086;DHT22;23001;45.952;12.676;2022-11-14T01:40:57;11.30;99.90
37086;DHT22;23001;45.952;12.676;2022-11-14T01:43:26;11.30;99.90
37086;DHT22;23001;45.952;12.676;2022-11-14T01:46:05;11.30;99.90
37086;DHT22;23001;45.952;12.676;2022-11-14T01:48:44;11.20;99.90
37086;DHT22;23001;45.952;12.676;2022-11-14T01:51:21;11.30;99.90
37086;DHT22;23001;45.952;12.676;2022-11-14T01:53:51;11.30;99.90
37086;DHT22;23001;45.952;12.676;2022-11-14T01:56:28;11.30;99.90
37086;DHT22;23001;45.952;12.676;2022-11-14T01:59:02;11.40;99.90
37086;DHT22;23001;45.952;12.676;2022-11-14T02:01:30;11.30;99.90
37086;DHT22;23001;45.952;12.676;2022-11-14T02:03:58;11.30;99.90
37086;DHT22;23001;45.952;12.676;2022-11-14T02:06:27;11.30;99.90
37086;DHT22;23001;45.952;12.676;2022-11-14T02:08:54;11.30;99.90
37086;DHT22;23001;45.952;12.676;2022-11-14T02:11:21;11.20;99.90
37086;DHT22;23001;45.952;12.676;2022-11-14T02:13:47;11.30;99.90
37086;DHT22;23001;45.952;12.676;2022-11-14T02:16:13;11.20;99.90
37086;DHT22;23001;45.952;12.676;2022-11-14T02:18:39;11.20;99.90
37086;DHT22;23001;45.952;12.676;2022-11-14T02:21:05;11.10;99.90
37086;DHT22;23001;45.952;12.676;2022-11-14T02:23:32;11.10;99.90
37086;DHT22;23001;45.952;12.676;2022-11-14T02:25:58;11.00;99.90
37086;DHT22;23001;45.952;12.676;2022-11-14T02:28:24;11.00;99.90
37086;DHT22;23001;45.952;12.676;2022-11-14T02:30:50;11.10;99.90
37086;DHT22;23001;45.952;12.676;2022-11-14T02:33:16;11.00;99.90
37086;DHT22;23001;45.952;12.676;2022-11-14T02:35:42;11.00;99.90
37086;DHT22;23001;45.952;12.676;2022-11-14T02:38:07;10.90;99.90
37086;DHT22;23001;45.952;12.676;2022-11-14T02:40:33;11.00;99.90
37086;DHT22;23001;45.952;12.676;2022-11-14T02:43:00;11.00;99.90
37086;DHT22;23001;45.952;12.676;2022-11-14T02:45:26;10.90;99.90
37086;DHT22;23001;45.952;12.676;2022-11-14T02:47:52;11.00;99.90
37086;DHT22;23001;45.952;12.676;2022-11-14T02:50:17;11.00;99.90
37086;DHT22;23001;45.952;12.676;2022-11-14T02:52:43;11.00;99.90
37086;DHT22;23001;45.952;12.676;2022-11-14T02:55:09;11.10;99.90
37086;DHT22;23001;45.952;12.676;2022-11-14T02:57:35;11.10;99.90
37086;DHT22;23001;45.952;12.676;2022-11-14T03:00:01;11.10;99.90
37086;DHT22;23001;45.952;12.676;2022-11-14T03:02:29;11.10;99.90
37086;DHT22;23001;45.952;12.676;2022-11-14T03:04:55;11.10;99.90
37086;DHT22;23001;45.952;12.676;2022-11-14T03:07:20;11.10;99.90
37086;DHT22;23001;45.952;12.676;2022-11-14T03:09:46;11.10;99.90
37086;DHT22;23001;45.952;12.676;2022-11-14T03:12:15;11.10;99.90
37086;DHT22;23001;45.952;12.676;2022-11-14T03:14:42;11.00;99.90
37086;DHT22;23001;45.952;12.676;2022-11-14T03:17:08;11.00;99.90
37086;DHT22;23001;45.952;12.676;2022-11-14T03:19:34;11.00;99.90
37086;DHT22;23001;45.952;12.676;2022-11-14T03:21:59;11.00;99.90
37086;DHT22;23001;45.952;12.676;2022-11-14T03:24:25;11.00;99.90
37086;DHT22;23001;45.952;12.676;2022-11-14T03:26:51;11.00;99.90
37086;DHT22;23001;45.952;12.676;2022-11-14T03:29:17;10.90;99.90
37086;DHT22;23001;45.952;12.676;2022-11-14T03:31:43;10.80;99.90
37086;DHT22;23001;45.952;12.676;2022-11-14T03:34:09;10.70;99.90
37086;DHT22;23001;45.952;12.676;2022-11-14T03:36:35;10.70;99.90
37086;DHT22;23001;45.952;12.676;2022-11-14T03:39:02;10.80;99.90
37086;DHT22;23001;45.952;12.676;2022-11-14T03:41:28;10.70;99.90
37086;DHT22;23001;45.952;12.676;2022-11-14T03:43:54;10.70;99.90
37086;DHT22;23001;45.952;12.676;2022-11-14T03:46:19;10.60;99.90
37086;DHT22;23001;45.952;12.676;2022-11-14T03:48:45;10.60;99.90
37086;DHT22;23001;45.952;12.676;2022-11-14T03:51:11;10.60;99.90
37086;DHT22;23001;45.952;12.676;2022-11-14T03:53:37;10.60;99.90
37086;DHT22;23001;45.952;12.676;2022-11-14T03:56:03;10.60;99.90
37086;DHT22;23001;45.952;12.676;2022-11-14T03:58:28;10.50;99.90
37086;DHT22;23001;45.952;12.676;2022-11-14T04:00:54;10.50;99.90
37086;DHT22;23001;45.952;12.676;2022-11-14T04:03:21;10.50;99.90
37086;DHT22;23001;45.952;12.676;2022-11-14T04:05:48;10.60;99.90
37086;DHT22;23001;45.952;12.676;2022-11-14T04:08:14;10.60;99.90
37086;DHT22;23001;45.952;12.676;2022-11-14T04:10:39;10.60;99.90
37086;DHT22;23001;45.952;12.676;2022-11-14T04:13:06;10.60;99.90
37086;DHT22;23001;45.952;12.676;2022-11-14T04:15:32;10.60;99.90
37086;DHT22;23001;45.952;12.676;2022-11-14T04:17:59;10.70;99.90
37086;DHT22;23001;45.952;12.676;2022-11-14T04:20:25;10.70;99.90
37086;DHT22;23001;45.952;12.676;2022-11-14T04:22:51;10.80;99.90
37086;DHT22;23001;45.952;12.676;2022-11-14T04:25:16;10.80;99.90
37086;DHT22;23001;45.952;12.676;2022-11-14T04:27:42;10.80;99.90
37086;DHT22;23001;45.952;12.676;2022-11-14T04:30:09;10.90;99.90
37086;DHT22;23001;45.952;12.676;2022-11-14T04:32:35;10.90;99.90
37086;DHT22;23001;45.952;12.676;2022-11-14T04:35:01;10.90;99.90
37086;DHT22;23001;45.952;12.676;2022-11-14T04:37:26;10.90;99.90
37086;DHT22;23001;45.952;12.676;2022-11-14T04:39:52;11.00;99.90
37086;DHT22;23001;45.952;12.676;2022-11-14T04:42:18;11.00;99.90
37086;DHT22;23001;45.952;12.676;2022-11-14T04:44:43;11.00;99.90
37086;DHT22;23001;45.952;12.676;2022-11-14T04:47:09;11.00;99.90
37086;DHT22;23001;45.952;12.676;2022-11-14T04:49:35;11.00;99.90
37086;DHT22;23001;45.952;12.676;2022-11-14T04:52:01;11.00;99.90
37086;DHT22;23001;45.952;12.676;2022-11-14T04:54:27;11.00;99.90
37086;DHT22;23001;45.952;12.676;2022-11-14T04:56:53;11.00;99.90
37086;DHT22;23001;45.952;12.676;2022-11-14T04:59:18;11.00;99.90
37086;DHT22;23001;45.952;12.676;2022-11-14T05:01:44;10.90;99.90
37086;DHT22;23001;45.952;12.676;2022-11-14T05:04:10;10.90;99.90
37086;DHT22;23001;45.952;12.676;2022-11-14T05:06:35;10.80;99.90
37086;DHT22;23001;45.952;12.676;2022-11-14T05:09:01;10.80;99.90
37086;DHT22;23001;45.952;12.676;2022-11-14T05:11:27;10.80;99.90
37086;DHT22;23001;45.952;12.676;2022-11-14T05:13:52;10.80;99.90
37086;DHT22;23001;45.952;12.676;2022-11-14T05:16:18;10.80;99.90
37086;DHT22;23001;45.952;12.676;2022-11-14T05:18:44;10.80;99.90
37086;DHT22;23001;45.952;12.676;2022-11-14T05:21:13;10.80;99.90
37086;DHT22;23001;45.952;12.676;2022-11-14T05:23:39;10.80;99.90
37086;DHT22;23001;45.952;12.676;2022-11-14T05:26:08;10.80;99.90
37086;DHT22;23001;45.952;12.676;2022-11-14T05:28:34;10.80;99.90
37086;DHT22;23001;45.952;12.676;2022-11-14T05:31:05;10.80;99.90
37086;DHT22;23001;45.952;12.676;2022-11-14T05:33:32;10.90;99.90
37086;DHT22;23001;45.952;12.676;2022-11-14T05:36:06;10.80;99.90
37086;DHT22;23001;45.952;12.676;2022-11-14T05:38:32;10.90;99.90
37086;DHT22;23001;45.952;12.676;2022-11-14T05:40:58;10.90;99.90
37086;DHT22;23001;45.952;12.676;2022-11-14T05:43:27;10.90;99.90
37086;DHT22;23001;45.952;12.676;2022-11-14T05:45:58;11.00;99.90
37086;DHT22;23001;45.952;12.676;2022-11-14T05:48:24;11.00;99.90
37086;DHT22;23001;45.952;12.676;2022-11-14T05:50:55;11.00;99.90
37086;DHT22;23001;45.952;12.676;2022-11-14T05:53:22;11.00;99.90
37086;DHT22;23001;45.952;12.676;2022-11-14T05:55:48;11.10;99.90
37086;DHT22;23001;45.952;12.676;2022-11-14T05:58:13;11.10;99.90
37086;DHT22;23001;45.952;12.676;2022-11-14T06:00:39;11.10;99.90
37086;DHT22;23001;45.952;12.676;2022-11-14T06:03:05;11.10;99.90
37086;DHT22;23001;45.952;12.676;2022-11-14T06:05:31;11.10;99.90
37086;DHT22;23001;45.952;12.676;2022-11-14T06:07:58;11.10;99.90
37086;DHT22;23001;45.952;12.676;2022-11-14T06:10:24;11.20;99.90
37086;DHT22;23001;45.952;12.676;2022-11-14T06:12:50;11.20;99.90
37086;DHT22;23001;45.952;12.676;2022-11-14T06:15:16;11.20;99.90
37086;DHT22;23001;45.952;12.676;2022-11-14T06:17:42;11.20;99.90
37086;DHT22;23001;45.952;12.676;2022-11-14T06:20:08;11.20;99.90
37086;DHT22;23001;45.952;12.676;2022-11-14T06:22:34;11.20;99.90
37086;DHT22;23001;45.952;12.676;2022-11-14T06:25:01;11.20;99.90
37086;DHT22;23001;45.952;12.676;2022-11-14T06:27:27;11.20;99.90
37086;DHT22;23001;45.952;12.676;2022-11-14T06:29:52;11.20;99.90
37086;DHT22;23001;45.952;12.676;2022-11-14T06:32:18;11.20;99.90
37086;DHT22;23001;45.952;12.676;2022-11-14T06:34:47;11.20;99.90
37086;DHT22;23001;45.952;12.676;2022-11-14T06:37:13;11.30;99.90
37086;DHT22;23001;45.952;12.676;2022-11-14T06:39:38;11.30;99.90
37086;DHT22;23001;45.952;12.676;2022-11-14T06:42:19;11.30;99.90
37086;DHT22;23001;45.952;12.676;2022-11-14T06:44:47;11.30;99.90
37086;DHT22;23001;45.952;12.676;2022-11-14T06:47:36;11.30;99.90
37086;DHT22;23001;45.952;12.676;2022-11-14T06:50:02;11.40;99.90
37086;DHT22;23001;45.952;12.676;2022-11-14T06:56:13;11.40;99.90
37086;DHT22;23001;45.952;12.676;2022-11-14T07:02:56;11.50;99.90
37086;DHT22;23001;45.952;12.676;2022-11-14T07:05:24;11.50;99.90
37086;DHT22;23001;45.952;12.676;2022-11-14T07:07:49;11.50;99.90
37086;DHT22;23001;45.952;12.676;2022-11-14T07:10:15;11.60;99.90
37086;DHT22;23001;45.952;12.676;2022-11-14T07:12:41;11.60;99.90
37086;DHT22;23001;45.952;12.676;2022-11-14T07:15:07;11.70;99.90
37086;DHT22;23001;45.952;12.676;2022-11-14T07:17:34;11.60;99.90
37086;DHT22;23001;45.952;12.676;2022-11-14T07:20:00;11.70;99.90
37086;DHT22;23001;45.952;12.676;2022-11-14T07:22:44;11.70;99.90
37086;DHT22;23001;45.952;12.676;2022-11-14T07:25:11;11.70;99.90
37086;DHT22;23001;45.952;12.676;2022-11-14T07:27:36;11.70;99.90
37086;DHT22;23001;45.952;12.676;2022-11-14T07:30:03;11.80;99.90
37086;DHT22;23001;45.952;12.676;2022-11-14T07:32:56;11.80;99.90
37086;DHT22;23001;45.952;12.676;2022-11-14T07:35:23;11.80;99.90
37086;DHT22;23001;45.952;12.676;2022-11-14T07:37:49;11.80;99.90
37086;DHT22;23001;45.952;12.676;2022-11-14T07:40:16;11.90;99.90
37086;DHT22;23001;45.952;12.676;2022-11-14T07:42:42;11.90;99.90
37086;DHT22;23001;45.952;12.676;2022-11-14T07:45:09;11.90;99.90
37086;DHT22;23001;45.952;12.676;2022-11-14T07:47:34;11.90;99.90
37086;DHT22;23001;45.952;12.676;2022-11-14T07:50:00;11.80;99.90
37086;DHT22;23001;45.952;12.676;2022-11-14T07:52:29;11.90;99.90
37086;DHT22;23001;45.952;12.676;2022-11-14T07:54:56;11.90;99.90
37086;DHT22;23001;45.952;12.676;2022-11-14T08:00:50;11.90;99.90
37086;DHT22;23001;45.952;12.676;2022-11-14T08:03:16;12.00;99.90
37086;DHT22;23001;45.952;12.676;2022-11-14T08:05:42;12.00;99.90
37086;DHT22;23001;45.952;12.676;2022-11-14T08:08:07;12.00;99.90
37086;DHT22;23001;45.952;12.676;2022-11-14T08:10:33;12.00;99.90
37086;DHT22;23001;45.952;12.676;2022-11-14T08:13:05;12.00;99.90
37086;DHT22;23001;45.952;12.676;2022-11-14T08:15:32;12.10;99.90
37086;DHT22;23001;45.952;12.676;2022-11-14T08:17:59;12.10;99.90
37086;DHT22;23001;45.952;12.676;2022-11-14T08:20:25;12.10;99.90
37086;DHT22;23001;45.952;12.676;2022-11-14T08:22:52;12.10;99.90
37086;DHT22;23001;45.952;12.676;2022-11-14T08:25:18;12.20;99.90
37086;DHT22;23001;45.952;12.676;2022-11-14T08:27:43;12.20;99.90
37086;DHT22;23001;45.952;12.676;2022-11-14T08:30:10;12.20;99.90
37086;DHT22;23001;45.952;12.676;2022-11-14T08:32:36;12.30;99.90
37086;DHT22;23001;45.952;12.676;2022-11-14T08:35:05;12.30;99.90
37086;DHT22;23001;45.952;12.676;2022-11-14T08:37:30;12.30;99.90
37086;DHT22;23001;45.952;12.676;2022-11-14T08:40:08;12.30;99.90
37086;DHT22;23001;45.952;12.676;2022-11-14T08:42:34;12.30;99.90
37086;DHT22;23001;45.952;12.676;2022-11-14T08:45:00;12.40;99.90
37086;DHT22;23001;45.952;12.676;2022-11-14T08:47:26;12.40;99.90
37086;DHT22;23001;45.952;12.676;2022-11-14T08:49:51;12.50;99.90
37086;DHT22;23001;45.952;12.676;2022-11-14T08:52:21;12.50;99.90
37086;DHT22;23001;45.952;12.676;2022-11-14T08:54:47;12.50;99.90
37086;DHT22;23001;45.952;12.676;2022-11-14T08:57:12;12.60;99.90
37086;DHT22;23001;45.952;12.676;2022-11-14T08:59:40;12.60;99.90
37086;DHT22;23001;45.952;12.676;2022-11-14T09:02:12;12.60;99.90
37086;DHT22;23001;45.952;12.676;2022-11-14T09:04:40;12.70;99.90
37086;DHT22;23001;45.952;12.676;2022-11-14T09:07:07;12.70;99.90
37086;DHT22;23001;45.952;12.676;2022-11-14T09:09:32;12.70;99.90
37086;DHT22;23001;45.952;12.676;2022-11-14T09:11:58;12.80;99.90
37086;DHT22;23001;45.952;12.676;2022-11-14T09:14:23;12.80;99.90
37086;DHT22;23001;45.952;12.676;2022-11-14T09:16:49;12.80;99.90
37086;DHT22;23001;45.952;12.676;2022-11-14T09:19:15;12.80;99.90
37086;DHT22;23001;45.952;12.676;2022-11-14T09:21:44;12.80;99.90
37086;DHT22;23001;45.952;12.676;2022-11-14T09:24:09;12.90;99.90
37086;DHT22;23001;45.952;12.676;2022-11-14T09:26:35;12.90;99.90
37086;DHT22;23001;45.952;12.676;2022-11-14T09:29:01;13.00;99.90
37086;DHT22;23001;45.952;12.676;2022-11-14T09:31:27;13.00;99.90
37086;DHT22;23001;45.952;12.676;2022-11-14T09:33:54;12.90;99.90
37086;DHT22;23001;45.952;12.676;2022-11-14T09:36:20;12.90;99.90
37086;DHT22;23001;45.952;12.676;2022-11-14T09:38:45;13.00;99.90
37086;DHT22;23001;45.952;12.676;2022-11-14T09:41:25;13.10;99.90
37086;DHT22;23001;45.952;12.676;2022-11-14T09:47:04;13.20;99.90
37086;DHT22;23001;45.952;12.676;2022-11-14T09:52:24;13.30;99.90
37086;DHT22;23001;45.952;12.676;2022-11-14T09:54:59;13.40;99.90
37086;DHT22;23001;45.952;12.676;2022-11-14T09:57:25;13.40;99.90
37086;DHT22;23001;45.952;12.676;2022-11-14T09:59:52;13.40;99.90
37086;DHT22;23001;45.952;12.676;2022-11-14T10:05:48;13.50;99.90
37086;DHT22;23001;45.952;12.676;2022-11-14T10:11:41;13.60;99.90
37086;DHT22;23001;45.952;12.676;2022-11-14T10:17:21;13.70;99.90
37086;DHT22;23001;45.952;12.676;2022-11-14T10:25:32;13.80;99.90
37086;DHT22;23001;45.952;12.676;2022-11-14T10:28:21;13.80;99.90
37086;DHT22;23001;45.952;12.676;2022-11-14T10:36:59;13.90;99.90
37086;DHT22;23001;45.952;12.676;2022-11-14T10:39:55;14.00;99.90
37086;DHT22;23001;45.952;12.676;2022-11-14T10:42:35;14.00;99.90
37086;DHT22;23001;45.952;12.676;2022-11-14T10:45:20;14.10;99.90
37086;DHT22;23001;45.952;12.676;2022-11-14T10:48:02;14.10;99.90
37086;DHT22;23001;45.952;12.676;2022-11-14T10:50:56;14.20;99.90
37086;DHT22;23001;45.952;12.676;2022-11-14T10:56:11;14.30;99.90
37086;DHT22;23001;45.952;12.676;2022-11-14T10:58:37;14.30;99.90
37086;DHT22;23001;45.952;12.676;2022-11-14T11:01:31;14.40;99.90
37086;DHT22;23001;45.952;12.676;2022-11-14T11:03:57;14.40;99.90
37086;DHT22;23001;45.952;12.676;2022-11-14T11:06:35;14.50;99.90
37086;DHT22;23001;45.952;12.676;2022-11-14T11:09:28;14.50;99.90
37086;DHT22;23001;45.952;12.676;2022-11-14T11:12:17;14.40;99.90
37086;DHT22;23001;45.952;12.676;2022-11-14T11:14:44;14.40;99.90
37086;DHT22;23001;45.952;12.676;2022-11-14T11:19:39;14.50;99.90
37086;DHT22;23001;45.952;12.676;2022-11-14T11:22:24;14.50;99.90
37086;DHT22;23001;45.952;12.676;2022-11-14T11:24:50;14.50;99.90
37086;DHT22;23001;45.952;12.676;2022-11-14T11:27:26;14.50;99.90
37086;DHT22;23001;45.952;12.676;2022-11-14T11:30:18;14.40;99.90
37086;DHT22;23001;45.952;12.676;2022-11-14T11:32:44;14.40;99.90
37086;DHT22;23001;45.952;12.676;2022-11-14T11:35:12;14.40;99.90
37086;DHT22;23001;45.952;12.676;2022-11-14T11:37:54;14.40;99.90
37086;DHT22;23001;45.952;12.676;2022-11-14T11:40:24;14.50;99.90
37086;DHT22;23001;45.952;12.676;2022-11-14T11:43:10;14.50;99.90
37086;DHT22;23001;45.952;12.676;2022-11-14T11:45:38;14.50;99.90
37086;DHT22;23001;45.952;12.676;2022-11-14T11:48:16;14.50;99.90
37086;DHT22;23001;45.952;12.676;2022-11-14T11:50:42;14.50;99.90
37086;DHT22;23001;45.952;12.676;2022-11-14T11:55:48;14.60;99.90
37086;DHT22;23001;45.952;12.676;2022-11-14T12:01:13;14.60;99.90
37086;DHT22;23001;45.952;12.676;2022-11-14T12:03:50;14.60;99.90
37086;DHT22;23001;45.952;12.676;2022-11-14T12:06:21;14.60;99.90
37086;DHT22;23001;45.952;12.676;2022-11-14T12:09:02;14.60;99.90
37086;DHT22;23001;45.952;12.676;2022-11-14T12:11:33;14.60;99.90
37086;DHT22;23001;45.952;12.676;2022-11-14T12:14:39;14.70;99.90
37086;DHT22;23001;45.952;12.676;2022-11-14T12:17:37;14.70;99.90
37086;DHT22;23001;45.952;12.676;2022-11-14T12:31:12;14.70;99.90
37086;DHT22;23001;45.952;12.676;2022-11-14T12:33:44;14.70;99.90
37086;DHT22;23001;45.952;12.676;2022-11-14T12:36:12;14.70;99.90
37086;DHT22;23001;45.952;12.676;2022-11-14T12:38:47;14.70;99.90
37086;DHT22;23001;45.952;12.676;2022-11-14T12:41:21;14.80;99.90
37086;DHT22;23001;45.952;12.676;2022-11-14T12:43:48;14.80;99.90
37086;DHT22;23001;45.952;12.676;2022-11-14T12:46:13;14.80;99.90
37086;DHT22;23001;45.952;12.676;2022-11-14T12:48:43;14.80;99.90
37086;DHT22;23001;45.952;12.676;2022-11-14T12:53:50;14.80;99.90
37086;DHT22;23001;45.952;12.676;2022-11-14T13:04:45;14.70;99.90
37086;DHT22;23001;45.952;12.676;2022-11-14T13:10:23;14.60;99.90
37086;DHT22;23001;45.952;12.676;2022-11-14T13:13:08;14.60;99.90
37086;DHT22;23001;45.952;12.676;2022-11-14T13:15:57;14.60;99.90
37086;DHT22;23001;45.952;12.676;2022-11-14T13:25:14;14.60;99.90
37086;DHT22;23001;45.952;12.676;2022-11-14T13:27:41;14.60;99.90
37086;DHT22;23001;45.952;12.676;2022-11-14T13:30:06;14.60;99.90
37086;DHT22;23001;45.952;12.676;2022-11-14T13:35:24;14.60;99.90
37086;DHT22;23001;45.952;12.676;2022-11-14T13:38:03;14.60;99.90
37086;DHT22;23001;45.952;12.676;2022-11-14T13:51:34;14.50;99.90
37086;DHT22;23001;45.952;12.676;2022-11-14T13:54:00;14.60;99.90
37086;DHT22;23001;45.952;12.676;2022-11-14T13:57:06;14.60;99.90
37086;DHT22;23001;45.952;12.676;2022-11-14T14:16:57;14.50;99.90
37086;DHT22;23001;45.952;12.676;2022-11-14T14:27:15;14.60;99.90
37086;DHT22;23001;45.952;12.676;2022-11-14T14:29:57;14.50;99.90
37086;DHT22;23001;45.952;12.676;2022-11-14T14:32:26;14.50;99.90
37086;DHT22;23001;45.952;12.676;2022-11-14T14:34:52;14.50;99.90
37086;DHT22;23001;45.952;12.676;2022-11-14T14:37:23;14.50;99.90
37086;DHT22;23001;45.952;12.676;2022-11-14T14:40:00;14.50;99.90
37086;DHT22;23001;45.952;12.676;2022-11-14T14:42:39;14.40;99.90
37086;DHT22;23001;45.952;12.676;2022-11-14T14:45:17;14.40;99.90
37086;DHT22;23001;45.952;12.676;2022-11-14T14:47:47;14.30;99.90
37086;DHT22;23001;45.952;12.676;2022-11-14T14:50:22;14.30;99.90
37086;DHT22;23001;45.952;12.676;2022-11-14T14:52:59;14.30;99.90
37086;DHT22;23001;45.952;12.676;2022-11-14T14:55:30;14.30;99.90
37086;DHT22;23001;45.952;12.676;2022-11-14T14:58:24;14.30;99.90
37086;DHT22;23001;45.952;12.676;2022-11-14T15:00:56;14.20;99.90
37086;DHT22;23001;45.952;12.676;2022-11-14T15:03:23;14.10;99.90
37086;DHT22;23001;45.952;12.676;2022-11-14T15:06:00;14.10;99.90
37086;DHT22;23001;45.952;12.676;2022-11-14T15:08:27;14.00;99.90
37086;DHT22;23001;45.952;12.676;2022-11-14T15:10:57;13.90;99.90
37086;DHT22;23001;45.952;12.676;2022-11-14T15:13:25;13.90;99.90
37086;DHT22;23001;45.952;12.676;2022-11-14T15:15:52;13.90;99.90
37086;DHT22;23001;45.952;12.676;2022-11-14T15:18:29;13.90;99.90
37086;DHT22;23001;45.952;12.676;2022-11-14T15:21:15;13.90;99.90
37086;DHT22;23001;45.952;12.676;2022-11-14T15:23:42;13.80;99.90
37086;DHT22;23001;45.952;12.676;2022-11-14T15:26:15;13.90;99.90
37086;DHT22;23001;45.952;12.676;2022-11-14T15:28:42;13.90;99.90
37086;DHT22;23001;45.952;12.676;2022-11-14T15:31:16;13.80;99.90
37086;DHT22;23001;45.952;12.676;2022-11-14T15:33:43;13.80;99.90
37086;DHT22;23001;45.952;12.676;2022-11-14T15:36:14;13.70;99.90
37086;DHT22;23001;45.952;12.676;2022-11-14T15:41:44;13.70;99.90
37086;DHT22;23001;45.952;12.676;2022-11-14T15:44:28;13.70;99.90
37086;DHT22;23001;45.952;12.676;2022-11-14T15:46:55;13.70;99.90
37086;DHT22;23001;45.952;12.676;2022-11-14T15:49:25;13.60;99.90
37086;DHT22;23001;45.952;12.676;2022-11-14T15:54:33;13.60;99.90
37086;DHT22;23001;45.952;12.676;2022-11-14T15:57:11;13.60;99.90
37086;DHT22;23001;45.952;12.676;2022-11-14T15:59:37;13.60;99.90
37086;DHT22;23001;45.952;12.676;2022-11-14T16:02:27;13.50;99.90
37086;DHT22;23001;45.952;12.676;2022-11-14T16:04:54;13.50;99.90
37086;DHT22;23001;45.952;12.676;2022-11-14T16:07:20;13.50;99.90
37086;DHT22;23001;45.952;12.676;2022-11-14T16:09:47;13.50;99.90
37086;DHT22;23001;45.952;12.676;2022-11-14T16:12:13;13.50;99.90
37086;DHT22;23001;45.952;12.676;2022-11-14T16:14:39;13.40;99.90
37086;DHT22;23001;45.952;12.676;2022-11-14T16:17:07;13.40;99.90
37086;DHT22;23001;45.952;12.676;2022-11-14T16:19:33;13.40;99.90
37086;DHT22;23001;45.952;12.676;2022-11-14T16:22:00;13.40;99.90
37086;DHT22;23001;45.952;12.676;2022-11-14T16:24:28;13.40;99.90
37086;DHT22;23001;45.952;12.676;2022-11-14T16:26:55;13.40;99.90
37086;DHT22;23001;45.952;12.676;2022-11-14T16:29:22;13.40;99.90
37086;DHT22;23001;45.952;12.676;2022-11-14T16:31:48;13.40;99.90
37086;DHT22;23001;45.952;12.676;2022-11-14T16:34:21;13.30;99.90
37086;DHT22;23001;45.952;12.676;2022-11-14T16:36:47;13.30;99.90
37086;DHT22;23001;45.952;12.676;2022-11-14T16:39:13;13.30;99.90
37086;DHT22;23001;45.952;12.676;2022-11-14T16:41:40;13.30;99.90
37086;DHT22;23001;45.952;12.676;2022-11-14T16:44:12;13.30;99.90
37086;DHT22;23001;45.952;12.676;2022-11-14T16:46:39;13.30;99.90
37086;DHT22;23001;45.952;12.676;2022-11-14T16:49:04;13.30;99.90
37086;DHT22;23001;45.952;12.676;2022-11-14T16:51:30;13.30;99.90
37086;DHT22;23001;45.952;12.676;2022-11-14T16:53:56;13.20;99.90
37086;DHT22;23001;45.952;12.676;2022-11-14T16:56:22;13.20;99.90
37086;DHT22;23001;45.952;12.676;2022-11-14T16:58:53;13.20;99.90
37086;DHT22;23001;45.952;12.676;2022-11-14T17:01:18;13.20;99.90
37086;DHT22;23001;45.952;12.676;2022-11-14T17:03:44;13.20;99.90
37086;DHT22;23001;45.952;12.676;2022-11-14T17:06:09;13.20;99.90
37086;DHT22;23001;45.952;12.676;2022-11-14T17:08:36;13.10;99.90
37086;DHT22;23001;45.952;12.676;2022-11-14T17:11:09;13.10;99.90
37086;DHT22;23001;45.952;12.676;2022-11-14T17:13:36;13.00;99.90
37086;DHT22;23001;45.952;12.676;2022-11-14T17:16:02;13.10;99.90
37086;DHT22;23001;45.952;12.676;2022-11-14T17:18:28;13.20;99.90
37086;DHT22;23001;45.952;12.676;2022-11-14T17:20:54;13.20;99.90
37086;DHT22;23001;45.952;12.676;2022-11-14T17:23:20;13.20;99.90
37086;DHT22;23001;45.952;12.676;2022-11-14T17:25:45;13.10;99.90
37086;DHT22;23001;45.952;12.676;2022-11-14T17:28:11;13.10;99.90
37086;DHT22;23001;45.952;12.676;2022-11-14T17:30:41;13.10;99.90
37086;DHT22;23001;45.952;12.676;2022-11-14T17:33:07;13.20;99.90